Time;durP1;ratioP1;P1;durP2;ratioP2;P2;SDS_P1;SDS_P2;PMS_P1;PMS_P2;Temp;Humidity;BMP_temperature;BMP_pressure;BME280_temperature;BME280_humidity;BME280_pressure;Samples;Min_cycle;Max_cycle;Signal;HPM_P1;HPM_P2
2024/01/06 00:00:35;;;;;;;24.95;15.15;;;6.20;99.90;;;;;;5063400;28;20124;-65
2024/01/06 00:03:00;;;;;;;22.45;14.40;;;6.30;99.90;;;;;;5064056;28;20081;-65
2024/01/06 00:05:26;;;;;;;23.70;15.13;;;6.30;99.90;;;;;;5066456;28;20378;-66
2024/01/06 00:07:52;;;;;;;25.45;15.18;;;6.30;99.90;;;;;;5064545;28;20017;-66
2024/01/06 00:10:18;;;;;;;24.48;14.88;;;6.30;99.90;;;;;;5063649;28;20036;-65
2024/01/06 00:12:43;;;;;;;29.27;15.95;;;6.30;99.90;;;;;;5064613;28;20131;-65
2024/01/06 00:15:10;;;;;;;24.90;15.45;;;6.30;99.90;;;;;;5063906;28;20036;-66
2024/01/06 00:17:36;;;;;;;21.45;14.80;;;6.30;99.90;;;;;;5063360;28;20032;-66
2024/01/06 00:20:02;;;;;;;23.00;13.80;;;6.30;99.90;;;;;;5064838;28;20020;-66
2024/01/06 00:22:28;;;;;;;24.60;14.55;;;6.30;99.90;;;;;;5062744;28;20052;-66
2024/01/06 00:24:53;;;;;;;26.48;15.63;;;6.30;99.90;;;;;;5063952;28;20371;-66
2024/01/06 00:27:19;;;;;;;26.30;15.65;;;6.40;99.90;;;;;;5063463;28;20456;-67
2024/01/06 00:29:45;;;;;;;27.85;17.58;;;6.40;99.90;;;;;;5062189;28;20132;-66
2024/01/06 00:32:11;;;;;;;26.45;15.93;;;6.40;99.90;;;;;;5064399;28;20085;-66
2024/01/06 00:34:36;;;;;;;22.05;14.73;;;6.40;99.90;;;;;;5063840;28;20053;-66
2024/01/06 00:37:02;;;;;;;24.30;15.07;;;6.40;99.90;;;;;;5063280;28;20448;-66
2024/01/06 00:39:27;;;;;;;25.13;15.35;;;6.40;99.90;;;;;;5059682;28;20031;-66
2024/01/06 00:41:53;;;;;;;24.58;15.07;;;6.40;99.90;;;;;;5063992;28;20100;-65
2024/01/06 00:44:19;;;;;;;23.92;15.85;;;6.40;99.90;;;;;;5064112;28;20363;-66
2024/01/06 00:46:45;;;;;;;26.52;15.70;;;6.40;99.90;;;;;;5062400;28;20083;-66
2024/01/06 00:49:10;;;;;;;23.70;15.50;;;6.40;99.90;;;;;;5064312;28;20034;-66
2024/01/06 00:51:36;;;;;;;25.05;15.38;;;6.40;99.90;;;;;;5063332;28;20390;-66
2024/01/06 00:54:02;;;;;;;25.23;16.13;;;6.40;99.90;;;;;;5062806;28;20052;-65
2024/01/06 00:56:28;;;;;;;26.73;15.85;;;6.40;99.90;;;;;;5064172;28;20483;-68
2024/01/06 00:58:54;;;;;;;26.30;16.30;;;6.40;99.90;;;;;;5062828;28;20107;-65
2024/01/06 01:01:20;;;;;;;25.67;15.88;;;6.40;99.90;;;;;;5062366;28;20476;-66
2024/01/06 01:03:45;;;;;;;27.38;16.05;;;6.40;99.90;;;;;;5063367;28;20123;-65
2024/01/06 01:06:11;;;;;;;23.17;15.23;;;6.50;99.90;;;;;;5061710;28;20033;-65
2024/01/06 01:08:36;;;;;;;31.65;17.48;;;6.40;99.90;;;;;;5058812;28;20501;-65
2024/01/06 01:11:02;;;;;;;37.05;20.23;;;6.50;99.90;;;;;;5063439;28;20158;-67
2024/01/06 01:13:28;;;;;;;25.92;16.10;;;6.40;99.90;;;;;;5063368;28;20029;-67
2024/01/06 01:15:53;;;;;;;22.23;15.20;;;6.40;99.90;;;;;;5062209;28;20031;-66
2024/01/06 01:18:19;;;;;;;25.65;16.38;;;6.40;99.90;;;;;;5063886;28;20139;-66
2024/01/06 01:20:45;;;;;;;24.67;16.30;;;6.40;99.90;;;;;;5062547;28;20031;-66
2024/01/06 01:23:10;;;;;;;25.95;16.60;;;6.40;99.90;;;;;;5062449;28;20031;-66
2024/01/06 01:25:36;;;;;;;24.45;16.10;;;6.40;99.90;;;;;;5062420;28;20089;-66
2024/01/06 01:28:01;;;;;;;28.70;16.88;;;6.30;99.90;;;;;;5053643;28;20108;-66
2024/01/06 01:30:27;;;;;;;29.48;16.63;;;6.30;99.90;;;;;;5053264;28;20021;-66
2024/01/06 01:32:53;;;;;;;28.95;17.13;;;6.30;99.90;;;;;;5068181;28;20492;-66
2024/01/06 01:35:19;;;;;;;26.70;17.05;;;6.30;99.90;;;;;;5068442;28;20036;-66
2024/01/06 01:37:44;;;;;;;28.42;17.27;;;6.30;99.90;;;;;;5058655;28;20468;-66
2024/01/06 01:40:10;;;;;;;27.55;16.27;;;6.30;99.90;;;;;;5060412;28;20029;-65
2024/01/06 01:42:37;;;;;;;31.17;18.02;;;6.30;99.90;;;;;;5052118;28;20033;-66
2024/01/06 01:45:03;;;;;;;26.48;17.35;;;6.30;99.90;;;;;;5052844;28;20112;-65
2024/01/06 01:47:29;;;;;;;28.48;17.13;;;6.30;99.90;;;;;;5053007;28;20432;-67
2024/01/06 01:49:56;;;;;;;29.05;17.77;;;6.40;99.90;;;;;;5051176;28;20029;-66
2024/01/06 01:52:22;;;;;;;32.40;17.45;;;6.30;99.90;;;;;;5052796;28;20029;-66
2024/01/06 01:54:48;;;;;;;27.80;17.30;;;6.40;99.90;;;;;;5052481;28;20036;-66
2024/01/06 01:57:15;;;;;;;28.58;16.77;;;6.30;99.90;;;;;;5052940;28;20025;-65
2024/01/06 01:59:41;;;;;;;28.65;16.92;;;6.30;99.90;;;;;;5052553;28;20406;-65
2024/01/06 02:02:08;;;;;;;25.23;16.83;;;6.40;99.90;;;;;;5052476;28;20430;-66
2024/01/06 02:04:34;;;;;;;30.65;16.70;;;6.40;99.90;;;;;;5052028;28;20484;-66
2024/01/06 02:07:00;;;;;;;25.52;16.80;;;6.40;99.90;;;;;;5052700;28;20163;-66
2024/01/06 02:09:29;;;;;;;28.63;16.70;;;6.40;99.90;;;;;;5052334;28;20075;-66
2024/01/06 02:11:58;;;;;;;25.10;16.50;;;6.40;99.90;;;;;;5052203;28;20035;-66
2024/01/06 02:14:23;;;;;;;28.83;17.80;;;6.40;99.90;;;;;;5052143;28;20473;-65
2024/01/06 02:16:49;;;;;;;24.58;17.35;;;6.40;99.90;;;;;;5052015;28;20029;-65
2024/01/06 02:19:16;;;;;;;29.08;18.70;;;6.40;99.90;;;;;;5052267;28;20107;-65
2024/01/06 02:21:43;;;;;;;30.88;19.48;;;6.40;99.90;;;;;;5050728;28;20084;-66
2024/01/06 02:24:10;;;;;;;32.67;19.33;;;6.40;99.90;;;;;;5052141;28;20052;-66
2024/01/06 02:26:35;;;;;;;28.50;19.52;;;6.40;99.90;;;;;;5050549;28;20361;-66
2024/01/06 02:29:01;;;;;;;29.30;19.38;;;6.30;99.90;;;;;;5051700;28;20025;-65
2024/01/06 02:31:27;;;;;;;30.77;19.00;;;6.30;99.90;;;;;;5052061;28;20031;-66
2024/01/06 02:33:53;;;;;;;26.95;18.70;;;6.30;99.90;;;;;;5051779;28;20570;-66
2024/01/06 02:36:19;;;;;;;31.65;19.98;;;6.30;99.90;;;;;;5051798;28;20105;-65
2024/01/06 02:38:44;;;;;;;30.20;19.88;;;6.30;99.90;;;;;;5052023;28;20037;-65
2024/01/06 02:41:10;;;;;;;30.42;20.55;;;6.30;99.90;;;;;;5052029;28;20027;-68
2024/01/06 02:43:35;;;;;;;28.02;18.70;;;6.30;99.90;;;;;;5052354;28;20076;-66
2024/01/06 02:46:01;;;;;;;30.00;21.02;;;6.30;99.90;;;;;;5051929;28;20072;-65
2024/01/06 02:48:29;;;;;;;29.85;19.13;;;6.30;99.90;;;;;;5052052;28;20427;-65
2024/01/06 02:50:55;;;;;;;30.70;20.20;;;6.30;99.90;;;;;;5051434;28;20037;-66
2024/01/06 02:53:20;;;;;;;29.67;19.90;;;6.30;99.90;;;;;;5052001;28;20036;-66
2024/01/06 02:55:46;;;;;;;29.38;20.08;;;6.30;99.90;;;;;;5051712;28;20029;-66
2024/01/06 02:58:12;;;;;;;27.63;19.67;;;6.30;99.90;;;;;;5052037;28;20032;-65
2024/01/06 03:00:37;;;;;;;32.22;20.10;;;6.30;99.90;;;;;;5051193;28;20079;-66
2024/01/06 03:03:03;;;;;;;32.83;19.45;;;6.30;99.90;;;;;;5051938;28;20513;-66
2024/01/06 03:05:29;;;;;;;29.92;20.10;;;6.30;99.90;;;;;;5051835;28;20366;-65
2024/01/06 03:07:54;;;;;;;34.47;20.58;;;6.30;99.90;;;;;;5051502;28;20043;-66
2024/01/06 03:10:20;;;;;;;30.25;20.08;;;6.20;99.90;;;;;;5051782;28;20032;-66
2024/01/06 03:12:45;;;;;;;31.10;20.33;;;6.30;99.90;;;;;;5051478;28;20485;-65
2024/01/06 03:15:11;;;;;;;29.92;19.48;;;6.20;99.90;;;;;;5051741;28;20112;-66
2024/01/06 03:17:37;;;;;;;29.23;20.48;;;6.30;99.90;;;;;;5051321;28;20377;-68
2024/01/06 03:20:03;;;;;;;28.58;19.15;;;6.20;99.90;;;;;;5051802;28;20075;-66
2024/01/06 03:22:29;;;;;;;32.80;19.55;;;6.20;99.90;;;;;;5051672;28;20033;-66
2024/01/06 03:24:55;;;;;;;34.75;21.13;;;6.20;99.90;;;;;;5051280;28;20059;-66
2024/01/06 03:27:21;;;;;;;30.70;20.08;;;6.20;99.90;;;;;;5055905;28;20036;-66
2024/01/06 03:29:46;;;;;;;27.30;19.42;;;6.20;99.90;;;;;;5054550;28;20095;-66
2024/01/06 03:32:12;;;;;;;31.38;20.30;;;6.20;99.90;;;;;;5055511;28;20115;-66
2024/01/06 03:34:38;;;;;;;27.40;19.60;;;6.20;99.90;;;;;;5055278;28;20033;-67
2024/01/06 03:37:03;;;;;;;29.30;19.48;;;6.20;99.90;;;;;;5055269;28;20024;-66
2024/01/06 03:39:30;;;;;;;33.17;20.70;;;6.20;99.90;;;;;;5055004;28;20362;-66
2024/01/06 03:41:55;;;;;;;31.02;20.10;;;6.20;99.90;;;;;;5054842;28;20063;-65
2024/01/06 03:44:21;;;;;;;29.65;19.50;;;6.20;99.90;;;;;;5055074;28;20032;-66
2024/01/06 03:46:46;;;;;;;36.72;19.95;;;6.20;99.90;;;;;;5054560;28;20029;-65
2024/01/06 03:49:12;;;;;;;31.80;20.75;;;6.20;99.90;;;;;;5054831;28;20522;-66
2024/01/06 03:51:38;;;;;;;29.33;19.42;;;6.20;99.90;;;;;;5054987;28;20021;-65
2024/01/06 03:54:03;;;;;;;30.48;20.65;;;6.20;99.90;;;;;;5054418;28;20025;-65
2024/01/06 03:56:29;;;;;;;27.90;18.88;;;6.20;99.90;;;;;;5054939;28;20087;-66
2024/01/06 03:58:54;;;;;;;32.92;19.88;;;6.20;99.90;;;;;;5054145;28;20083;-66
2024/01/06 04:01:21;;;;;;;30.98;19.77;;;6.20;99.90;;;;;;5055264;28;20025;-65
2024/01/06 04:03:46;;;;;;;29.10;19.75;;;6.20;99.90;;;;;;5054224;28;20048;-66
2024/01/06 04:06:12;;;;;;;30.55;19.52;;;6.20;99.90;;;;;;5054464;28;20107;-66
2024/01/06 04:08:40;;;;;;;32.92;20.60;;;6.10;99.90;;;;;;5054728;28;20020;-66
2024/01/06 04:11:06;;;;;;;35.60;20.50;;;6.10;99.90;;;;;;5054688;28;20037;-65
2024/01/06 04:13:32;;;;;;;31.17;20.02;;;6.10;99.90;;;;;;5054654;28;20028;-67
2024/01/06 04:15:57;;;;;;;31.67;20.45;;;6.20;99.90;;;;;;5054098;28;20025;-65
2024/01/06 04:18:23;;;;;;;29.88;19.73;;;6.20;99.90;;;;;;5054734;28;20437;-66
2024/01/06 04:20:48;;;;;;;29.77;19.95;;;6.20;99.90;;;;;;5053604;28;20163;-65
2024/01/06 04:23:14;;;;;;;33.38;19.88;;;6.20;99.90;;;;;;5054058;28;20493;-65
2024/01/06 04:25:39;;;;;;;30.55;19.90;;;6.20;99.90;;;;;;5054685;28;20037;-66
2024/01/06 04:28:05;;;;;;;33.08;20.98;;;6.20;99.90;;;;;;5054190;28;20108;-66
2024/01/06 04:30:31;;;;;;;29.33;19.33;;;6.20;99.90;;;;;;5052874;28;20029;-66
2024/01/06 04:32:57;;;;;;;31.05;20.15;;;6.20;99.90;;;;;;5053878;28;20082;-65
2024/01/06 04:35:23;;;;;;;30.00;20.15;;;6.20;99.90;;;;;;5054057;28;20029;-65
2024/01/06 04:37:49;;;;;;;29.70;20.00;;;6.20;99.90;;;;;;5053669;28;20021;-66
2024/01/06 04:40:15;;;;;;;28.98;19.35;;;6.20;99.90;;;;;;5054125;28;20055;-66
2024/01/06 04:42:40;;;;;;;31.17;20.35;;;6.20;99.90;;;;;;5054581;28;20071;-66
2024/01/06 04:45:06;;;;;;;28.83;19.52;;;6.20;99.90;;;;;;5053518;28;20033;-66
2024/01/06 04:47:32;;;;;;;30.75;20.10;;;6.20;99.90;;;;;;5053893;28;20106;-66
2024/01/06 04:49:58;;;;;;;32.80;19.20;;;6.20;99.90;;;;;;5053549;28;20457;-66
2024/01/06 04:52:23;;;;;;;29.00;18.58;;;6.20;99.90;;;;;;5053657;28;20071;-65
2024/01/06 04:54:49;;;;;;;28.50;19.88;;;6.20;99.90;;;;;;5053224;28;20040;-66
2024/01/06 04:57:15;;;;;;;32.03;20.45;;;6.20;99.90;;;;;;5053780;28;20032;-66
2024/01/06 04:59:41;;;;;;;27.58;18.80;;;6.20;99.90;;;;;;5053647;28;20078;-66
2024/01/06 05:02:07;;;;;;;34.60;18.75;;;6.20;99.90;;;;;;5053249;28;20104;-66
2024/01/06 05:04:33;;;;;;;29.35;18.65;;;6.20;99.90;;;;;;5053323;28;20032;-66
2024/01/06 05:06:59;;;;;;;28.40;19.08;;;6.20;99.90;;;;;;5053285;28;20040;-66
2024/01/06 05:09:27;;;;;;;28.60;19.02;;;6.20;99.90;;;;;;5053803;28;20078;-66
2024/01/06 05:11:53;;;;;;;30.38;20.40;;;6.30;99.90;;;;;;5051779;28;20115;-66
2024/01/06 05:14:19;;;;;;;25.70;17.85;;;6.20;99.90;;;;;;5052932;28;20122;-66
2024/01/06 05:16:44;;;;;;;30.40;18.88;;;6.20;99.90;;;;;;5052849;28;20231;-68
2024/01/06 05:19:10;;;;;;;31.10;19.50;;;6.20;99.90;;;;;;5051539;28;20060;-65
2024/01/06 05:21:36;;;;;;;30.95;18.27;;;6.20;99.90;;;;;;5052604;28;20033;-66
2024/01/06 05:24:03;;;;;;;29.65;19.98;;;6.30;99.90;;;;;;5052111;28;20039;-66
2024/01/06 05:26:28;;;;;;;32.60;19.48;;;6.30;99.90;;;;;;5052886;28;20373;-65
2024/01/06 05:28:54;;;;;;;33.95;20.13;;;6.30;99.90;;;;;;5052328;28;20111;-65
2024/01/06 05:31:19;;;;;;;28.52;19.42;;;6.30;99.90;;;;;;5052018;28;20102;-66
2024/01/06 05:33:45;;;;;;;30.92;19.67;;;6.30;99.90;;;;;;5049424;28;20104;-65
2024/01/06 05:36:11;;;;;;;30.92;19.52;;;6.30;99.90;;;;;;5052827;28;20025;-66
2024/01/06 05:38:37;;;;;;;33.92;20.08;;;6.30;99.90;;;;;;5052563;28;20021;-65
2024/01/06 05:41:02;;;;;;;26.30;19.38;;;6.20;99.90;;;;;;5068701;28;20370;-65
2024/01/06 05:43:28;;;;;;;29.77;19.85;;;6.30;99.90;;;;;;5072720;28;20350;-65
2024/01/06 05:45:54;;;;;;;28.45;19.48;;;6.20;99.90;;;;;;5063302;28;20024;-65
2024/01/06 05:48:19;;;;;;;28.40;19.52;;;6.20;99.90;;;;;;5057104;28;20024;-65
2024/01/06 05:50:45;;;;;;;26.25;19.85;;;6.20;99.90;;;;;;5052589;28;20025;-65
2024/01/06 05:53:11;;;;;;;29.98;19.77;;;6.20;99.90;;;;;;5056296;28;20027;-66
2024/01/06 05:55:38;;;;;;;29.88;21.00;;;6.20;99.90;;;;;;5072592;28;20381;-66
2024/01/06 05:58:04;;;;;;;29.35;20.23;;;6.20;99.90;;;;;;5066222;28;20036;-67
2024/01/06 06:00:31;;;;;;;26.55;19.60;;;6.20;99.90;;;;;;5063033;28;20125;-66
2024/01/06 06:02:57;;;;;;;26.60;19.52;;;6.20;99.90;;;;;;5053644;28;20122;-66
2024/01/06 06:05:23;;;;;;;30.33;20.25;;;6.20;99.90;;;;;;5063010;28;20490;-65
2024/01/06 06:07:48;;;;;;;27.00;20.30;;;6.20;99.90;;;;;;5051693;28;20025;-66
2024/01/06 06:10:15;;;;;;;28.40;19.65;;;6.20;99.90;;;;;;5053368;28;20043;-66
2024/01/06 06:12:41;;;;;;;26.70;18.30;;;6.20;99.90;;;;;;5051791;28;20375;-67
2024/01/06 06:15:07;;;;;;;31.20;20.75;;;6.20;99.90;;;;;;5058573;28;20289;-66
2024/01/06 06:17:33;;;;;;;33.00;19.98;;;6.20;99.90;;;;;;5057849;28;20029;-65
2024/01/06 06:19:59;;;;;;;27.17;18.60;;;6.20;99.90;;;;;;5059943;28;20078;-67
2024/01/06 06:22:29;;;;;;;27.83;18.77;;;6.20;99.90;;;;;;5058074;28;20032;-66
2024/01/06 06:24:59;;;;;;;27.05;18.70;;;6.20;99.90;;;;;;5059351;28;20119;-67
2024/01/06 06:27:26;;;;;;;27.40;18.73;;;6.20;99.90;;;;;;5057792;28;20037;-67
2024/01/06 06:29:52;;;;;;;28.77;19.25;;;6.20;99.90;;;;;;5058791;28;20449;-67
2024/01/06 06:32:17;;;;;;;28.38;18.83;;;6.20;99.90;;;;;;5058703;28;20052;-67
2024/01/06 06:34:43;;;;;;;25.00;18.35;;;6.20;99.90;;;;;;5059120;28;20048;-67
2024/01/06 06:37:09;;;;;;;24.50;18.17;;;6.20;99.90;;;;;;5058321;28;20056;-66
2024/01/06 06:39:35;;;;;;;27.42;18.80;;;6.20;99.90;;;;;;5060000;28;20081;-66
2024/01/06 06:42:04;;;;;;;27.13;18.70;;;6.20;99.90;;;;;;5060447;28;20492;-67
2024/01/06 06:44:30;;;;;;;25.95;17.55;;;6.20;99.90;;;;;;5062004;28;20473;-67
2024/01/06 06:46:56;;;;;;;29.15;18.38;;;6.20;99.90;;;;;;5058862;28;20071;-67
2024/01/06 06:49:22;;;;;;;25.35;18.17;;;6.20;99.90;;;;;;5064459;28;20029;-66
2024/01/06 06:51:48;;;;;;;27.23;17.77;;;6.20;99.90;;;;;;5063472;28;20122;-66
2024/01/06 06:54:15;;;;;;;26.10;17.98;;;6.20;99.90;;;;;;5064639;28;20025;-67
2024/01/06 06:56:44;;;;;;;26.73;18.95;;;6.20;99.90;;;;;;5062779;28;20342;-67
2024/01/06 06:59:10;;;;;;;23.50;18.48;;;6.20;99.90;;;;;;5057441;28;20489;-67
2024/01/06 07:01:35;;;;;;;28.35;18.63;;;6.20;99.90;;;;;;5064017;28;20070;-66
2024/01/06 07:04:02;;;;;;;25.00;17.20;;;6.20;99.90;;;;;;5059137;28;20171;-67
2024/01/06 07:06:28;;;;;;;28.95;17.92;;;6.20;99.90;;;;;;5062003;28;20036;-67
2024/01/06 07:08:54;;;;;;;27.60;18.02;;;6.20;99.90;;;;;;5061686;28;20083;-68
2024/01/06 07:11:20;;;;;;;30.92;17.42;;;6.20;99.90;;;;;;5060332;28;20060;-67
2024/01/06 07:13:46;;;;;;;25.35;18.48;;;6.20;99.90;;;;;;5056688;28;20477;-68
2024/01/06 07:16:11;;;;;;;27.27;18.50;;;6.20;99.90;;;;;;5052701;28;20029;-67
2024/01/06 07:18:37;;;;;;;26.60;18.40;;;6.20;99.90;;;;;;5055632;28;20033;-67
2024/01/06 07:21:06;;;;;;;24.83;17.73;;;6.20;99.90;;;;;;5069175;28;20024;-67
2024/01/06 07:23:32;;;;;;;25.75;17.80;;;6.20;99.90;;;;;;5072480;28;20035;-68
2024/01/06 07:25:58;;;;;;;25.48;17.60;;;6.20;99.90;;;;;;5070030;28;20515;-67
2024/01/06 07:28:24;;;;;;;26.25;17.77;;;6.20;99.90;;;;;;5072760;28;20020;-67
2024/01/06 07:30:49;;;;;;;26.38;17.73;;;6.20;99.90;;;;;;5072216;28;20457;-69
2024/01/06 07:33:15;;;;;;;29.85;18.20;;;6.10;99.90;;;;;;5065004;28;20492;-68
2024/01/06 07:35:44;;;;;;;26.13;18.30;;;6.10;99.90;;;;;;5064065;28;20054;-67
2024/01/06 07:38:10;;;;;;;25.48;17.83;;;6.10;99.90;;;;;;5063491;28;20383;-67
2024/01/06 07:40:36;;;;;;;27.33;18.92;;;6.10;99.90;;;;;;5063468;28;20482;-66
2024/01/06 07:43:02;;;;;;;27.92;19.20;;;6.00;99.90;;;;;;5064264;28;20032;-66
2024/01/06 07:45:27;;;;;;;27.95;18.63;;;6.00;99.90;;;;;;5064942;28;20082;-66
2024/01/06 07:47:53;;;;;;;27.17;19.08;;;6.00;99.90;;;;;;5063372;28;20326;-68
2024/01/06 07:50:19;;;;;;;27.60;19.88;;;6.00;99.90;;;;;;5065310;28;20388;-68
2024/01/06 07:52:44;;;;;;;27.63;19.10;;;6.00;99.90;;;;;;5064671;28;20039;-67
2024/01/06 07:55:10;;;;;;;28.90;19.75;;;6.00;99.90;;;;;;5065673;28;20041;-68
2024/01/06 07:57:35;;;;;;;31.63;20.25;;;6.00;99.90;;;;;;5063231;28;20450;-67
2024/01/06 08:00:02;;;;;;;27.65;19.50;;;6.00;99.90;;;;;;5067254;28;20048;-67
2024/01/06 08:02:28;;;;;;;27.15;19.88;;;6.00;99.90;;;;;;5063415;28;20457;-65
2024/01/06 08:04:55;;;;;;;26.77;19.55;;;6.00;99.90;;;;;;5063873;28;20021;-67
2024/01/06 08:07:21;;;;;;;30.67;20.13;;;6.00;99.90;;;;;;5063481;28;20033;-66
2024/01/06 08:09:47;;;;;;;29.80;19.83;;;6.00;99.90;;;;;;5063359;28;20128;-66
2024/01/06 08:12:12;;;;;;;32.97;20.77;;;5.90;99.90;;;;;;5060230;28;20793;-68
2024/01/06 08:14:38;;;;;;;28.50;19.92;;;5.90;99.90;;;;;;5056904;28;20039;-67
2024/01/06 08:17:04;;;;;;;28.95;19.45;;;5.90;99.90;;;;;;5063073;28;20094;-67
2024/01/06 08:19:31;;;;;;;28.80;19.83;;;5.90;99.90;;;;;;5061063;28;20032;-67
2024/01/06 08:21:57;;;;;;;28.02;19.52;;;5.90;99.90;;;;;;5061444;28;20101;-67
2024/01/06 08:24:22;;;;;;;26.90;19.30;;;5.80;99.90;;;;;;5053989;28;20461;-66
2024/01/06 08:26:54;;;;;;;27.55;18.80;;;5.80;99.90;;;;;;5058976;28;20022;-66
2024/01/06 08:29:20;;;;;;;28.02;19.17;;;5.80;99.90;;;;;;5074333;28;20119;-65
2024/01/06 08:31:46;;;;;;;26.85;19.55;;;5.80;99.90;;;;;;5062544;28;20064;-66
2024/01/06 08:34:11;;;;;;;25.45;17.77;;;5.80;99.90;;;;;;5054169;28;20116;-67
2024/01/06 08:36:38;;;;;;;20.75;15.43;;;5.80;99.90;;;;;;5054010;28;20461;-67
2024/01/06 08:39:03;;;;;;;20.42;16.23;;;5.70;99.90;;;;;;5053803;28;20021;-66
2024/01/06 08:41:29;;;;;;;21.25;15.40;;;5.70;99.90;;;;;;5053829;28;20025;-66
2024/01/06 08:43:54;;;;;;;21.75;15.05;;;5.70;99.90;;;;;;5053279;28;20032;-66
2024/01/06 08:46:20;;;;;;;22.95;15.02;;;5.70;99.90;;;;;;5054041;28;20040;-66
2024/01/06 08:48:46;;;;;;;18.27;13.38;;;5.60;99.90;;;;;;5053910;28;20506;-65
2024/01/06 08:51:11;;;;;;;19.73;13.90;;;5.60;99.90;;;;;;5053626;28;20086;-65
2024/01/06 08:53:37;;;;;;;18.17;13.23;;;5.60;99.90;;;;;;5053887;28;20472;-65
2024/01/06 08:56:03;;;;;;;17.40;13.50;;;5.60;99.90;;;;;;5053718;28;20052;-66
2024/01/06 08:58:29;;;;;;;15.73;12.85;;;5.60;99.90;;;;;;5053918;28;20032;-65
2024/01/06 09:00:54;;;;;;;16.58;12.48;;;5.60;99.90;;;;;;5052032;28;20140;-68
2024/01/06 09:03:25;;;;;;;18.75;12.90;;;5.60;99.90;;;;;;5053496;28;20108;-66
2024/01/06 09:05:56;;;;;;;17.52;12.80;;;5.60;99.90;;;;;;5053650;28;20118;-65
2024/01/06 09:08:23;;;;;;;19.45;13.30;;;5.60;99.90;;;;;;5053861;28;20025;-66
2024/01/06 09:10:51;;;;;;;16.45;11.90;;;5.60;99.90;;;;;;5053517;28;20032;-66
2024/01/06 09:13:17;;;;;;;16.13;11.52;;;5.60;99.90;;;;;;5052973;28;20052;-65
2024/01/06 09:15:43;;;;;;;14.57;10.32;;;5.60;99.90;;;;;;5053119;28;20029;-66
2024/01/06 09:18:09;;;;;;;14.65;10.18;;;5.60;99.90;;;;;;5053298;28;20025;-65
2024/01/06 09:20:35;;;;;;;15.73;11.48;;;5.60;99.90;;;;;;5053420;28;20029;-66
2024/01/06 09:23:01;;;;;;;15.02;11.63;;;5.60;99.90;;;;;;5052104;28;20036;-66
2024/01/06 09:25:26;;;;;;;14.82;10.02;;;5.60;99.90;;;;;;5053414;28;20029;-66
2024/01/06 09:27:53;;;;;;;11.65;9.40;;;5.60;99.90;;;;;;5053017;28;20029;-65
2024/01/06 09:30:18;;;;;;;14.40;9.75;;;5.60;99.90;;;;;;5052670;28;20026;-67
2024/01/06 09:32:44;;;;;;;10.77;8.88;;;5.60;99.90;;;;;;5052760;28;20025;-66
2024/01/06 09:35:10;;;;;;;13.75;10.48;;;5.60;99.90;;;;;;5052498;28;20056;-65
2024/01/06 09:37:35;;;;;;;14.05;9.80;;;5.60;99.90;;;;;;5052747;28;20021;-66
2024/01/06 09:40:01;;;;;;;12.93;9.35;;;5.60;99.90;;;;;;5052535;28;20040;-67
2024/01/06 09:42:27;;;;;;;12.77;10.23;;;5.60;99.90;;;;;;5052949;28;20032;-66
2024/01/06 09:44:52;;;;;;;10.90;8.60;;;5.60;99.90;;;;;;5052588;28;20592;-66
2024/01/06 09:47:21;;;;;;;13.38;9.18;;;5.50;99.90;;;;;;5052534;28;20064;-65
2024/01/06 09:49:49;;;;;;;11.27;9.00;;;5.60;99.90;;;;;;5052551;28;20029;-66
2024/01/06 09:52:20;;;;;;;9.15;7.45;;;5.60;99.90;;;;;;5052340;28;20071;-66
2024/01/06 09:54:54;;;;;;;;;;;5.60;99.90;;;;;;5053231;28;20480;-66
2024/01/06 09:57:23;;;;;;;9.43;6.70;;;5.60;99.90;;;;;;5052667;28;20076;-66
2024/01/06 09:59:48;;;;;;;8.65;6.82;;;5.60;99.90;;;;;;5052460;28;20060;-66
2024/01/06 10:02:16;;;;;;;9.25;7.20;;;5.60;99.90;;;;;;5052167;28;20033;-66
2024/01/06 10:04:45;;;;;;;7.70;5.90;;;5.60;99.90;;;;;;5052582;28;20037;-65
2024/01/06 10:07:13;;;;;;;8.18;5.95;;;5.60;99.90;;;;;;5051866;28;20435;-65
2024/01/06 10:09:40;;;;;;;7.05;5.50;;;5.60;99.90;;;;;;5052288;28;20074;-65
2024/01/06 10:12:06;;;;;;;6.88;5.70;;;5.60;99.90;;;;;;5052085;28;20035;-66
2024/01/06 10:14:31;;;;;;;7.65;5.90;;;5.50;99.90;;;;;;5052109;28;20486;-66
2024/01/06 10:16:57;;;;;;;8.40;5.97;;;5.60;99.90;;;;;;5052092;28;20021;-67
2024/01/06 10:19:23;;;;;;;8.20;6.18;;;5.60;99.90;;;;;;5051892;28;20115;-67
2024/01/06 10:21:49;;;;;;;7.47;5.95;;;5.60;99.90;;;;;;5051831;28;20056;-66
2024/01/06 10:24:18;;;;;;;8.73;6.82;;;5.60;99.90;;;;;;5051384;28;20069;-67
2024/01/06 10:26:45;;;;;;;9.18;6.85;;;5.60;99.90;;;;;;5052169;28;20470;-67
2024/01/06 10:29:12;;;;;;;7.97;5.40;;;5.60;99.90;;;;;;5052154;28;20453;-66
2024/01/06 10:31:38;;;;;;;9.10;6.75;;;5.60;99.90;;;;;;5068248;28;20431;-66
2024/01/06 10:34:05;;;;;;;9.07;6.75;;;5.60;99.90;;;;;;5071409;28;20024;-66
2024/01/06 10:36:32;;;;;;;8.45;6.75;;;5.60;99.90;;;;;;5071950;28;20473;-65
2024/01/06 10:38:58;;;;;;;9.25;7.05;;;5.70;99.90;;;;;;5071992;28;20020;-66
2024/01/06 10:41:25;;;;;;;9.00;7.43;;;5.70;99.90;;;;;;5071691;28;20112;-66
2024/01/06 10:43:51;;;;;;;9.00;7.15;;;5.70;99.90;;;;;;5072043;28;20425;-65
2024/01/06 10:46:19;;;;;;;8.40;7.30;;;5.70;99.90;;;;;;5071652;28;20079;-65
2024/01/06 10:48:46;;;;;;;9.27;7.95;;;5.70;99.90;;;;;;5072270;28;20036;-66
2024/01/06 10:51:14;;;;;;;11.38;7.90;;;5.70;99.90;;;;;;5071712;28;20035;-67
2024/01/06 10:53:41;;;;;;;13.52;8.45;;;5.70;99.90;;;;;;5072032;28;20033;-66
2024/01/06 10:56:08;;;;;;;10.40;8.00;;;5.70;99.90;;;;;;5071910;28;20033;-65
2024/01/06 10:58:42;;;;;;;10.77;7.97;;;5.70;99.90;;;;;;5071947;28;20468;-66
2024/01/06 11:01:11;;;;;;;11.65;8.25;;;5.70;99.90;;;;;;5071770;28;20148;-66
2024/01/06 11:03:38;;;;;;;12.40;8.80;;;5.70;99.90;;;;;;5071828;28;20048;-65
2024/01/06 11:06:06;;;;;;;11.43;8.63;;;5.70;99.90;;;;;;5071725;28;20457;-66
2024/01/06 11:08:35;;;;;;;10.80;8.93;;;5.70;99.90;;;;;;5070652;28;20116;-66
2024/01/06 11:11:01;;;;;;;17.25;9.80;;;5.70;99.90;;;;;;5071791;28;20024;-66
2024/01/06 11:13:27;;;;;;;12.02;9.25;;;5.70;99.90;;;;;;5071422;28;20021;-66
2024/01/06 11:15:53;;;;;;;14.60;9.70;;;5.70;99.90;;;;;;5071461;28;20098;-66
2024/01/06 11:18:37;;;;;;;16.00;9.88;;;5.70;99.90;;;;;;5070107;28;20056;-65
2024/01/06 11:21:16;;;;;;;14.05;10.63;;;5.70;99.90;;;;;;5071718;28;20074;-66
2024/01/06 11:23:42;;;;;;;12.82;10.00;;;5.70;99.90;;;;;;5071733;28;20082;-66
2024/01/06 11:26:08;;;;;;;14.55;11.20;;;5.70;99.90;;;;;;5071125;28;20414;-66
2024/01/06 11:28:47;;;;;;;13.35;10.15;;;5.70;99.90;;;;;;5071762;28;20023;-66
2024/01/06 11:31:13;;;;;;;17.08;10.70;;;5.70;99.90;;;;;;5071377;28;20436;-65
2024/01/06 11:33:48;;;;;;;13.02;9.68;;;5.70;99.90;;;;;;5071778;28;20028;-66
2024/01/06 11:36:19;;;;;;;13.68;10.32;;;5.70;99.90;;;;;;5071251;28;20040;-66
2024/01/06 11:38:50;;;;;;;14.48;9.57;;;5.60;99.90;;;;;;5071332;28;20025;-66
2024/01/06 11:41:49;;;;;;;14.75;10.32;;;5.60;99.90;;;;;;5054313;28;20381;-66
2024/01/06 11:44:20;;;;;;;14.25;9.85;;;5.60;99.90;;;;;;5047600;28;20045;-66
2024/01/06 11:46:47;;;;;;;13.55;10.68;;;5.50;99.90;;;;;;5052962;28;20036;-65
2024/01/06 11:49:19;;;;;;;13.05;9.60;;;5.50;99.90;;;;;;5054830;28;20102;-65
2024/01/06 11:51:45;;;;;;;13.82;9.43;;;5.50;99.90;;;;;;5055203;28;20029;-65
2024/01/06 11:54:12;;;;;;;12.50;9.50;;;5.50;99.90;;;;;;5054860;28;20024;-66
2024/01/06 11:56:38;;;;;;;11.88;9.50;;;5.50;99.90;;;;;;5055213;28;20025;-66
2024/01/06 11:59:04;;;;;;;13.20;9.18;;;5.50;99.90;;;;;;5054572;28;20052;-66
2024/01/06 12:01:37;;;;;;;13.65;9.07;;;5.40;99.90;;;;;;5054738;28;20025;-66
2024/01/06 12:04:05;;;;;;;11.80;9.43;;;5.50;99.90;;;;;;5054606;28;20175;-66
2024/01/06 12:06:33;;;;;;;13.70;9.68;;;5.40;99.90;;;;;;5054453;28;20052;-67
2024/01/06 12:09:06;;;;;;;12.63;9.30;;;5.40;99.90;;;;;;5054606;28;20044;-65
2024/01/06 12:11:32;;;;;;;12.40;9.30;;;5.40;99.90;;;;;;5054682;28;20029;-66
2024/01/06 12:13:58;;;;;;;11.65;9.05;;;5.40;99.90;;;;;;5054772;28;20029;-67
2024/01/06 12:16:27;;;;;;;12.68;9.07;;;5.40;99.90;;;;;;5052897;28;20032;-66
2024/01/06 12:18:57;;;;;;;13.75;9.25;;;5.40;99.90;;;;;;5054773;28;20047;-65
2024/01/06 12:21:26;;;;;;;12.25;9.27;;;5.40;99.90;;;;;;5054206;28;20029;-66
2024/01/06 12:23:52;;;;;;;11.55;8.60;;;5.40;99.90;;;;;;5054261;28;20377;-66
2024/01/06 12:26:19;;;;;;;14.25;9.57;;;5.40;99.90;;;;;;5054184;28;20029;-67
2024/01/06 12:28:45;;;;;;;12.73;9.02;;;5.40;99.90;;;;;;5054626;28;20083;-66
2024/01/06 12:31:12;;;;;;;11.57;8.30;;;5.40;99.90;;;;;;5063608;28;20473;-66
2024/01/06 12:33:39;;;;;;;13.10;8.60;;;5.40;99.90;;;;;;5074546;28;20024;-66
2024/01/06 12:36:06;;;;;;;10.07;8.35;;;5.40;99.90;;;;;;5063124;28;20381;-66